Terminal Aerodrome Forecast
Issued by NWS

Home | Current Version | Previous Version | Graphics & Text | Print | Product List | Glossary On
Versions: 1 2 3 4 5 6 7 8 9 10 11 12 13 14 15 16 17 18 19 20 21 22 23 24 25 26 27 28 29 30 31 32 33
505
FTUS43 KABR 132320
TAFMBG
TAF
KMBG 132320Z 1400/1424 36006KT P6SM FEW060
     FM141200 04005KT 3SM BR SCT020
     FM141600 07007KT P6SM SCT200=

USA.gov is the U.S. government's official web portal to all federal, state and local government web resources and services.